createdAt,value
2023-02-06T00:00:10.947Z,44.00
2023-02-06T00:02:39.199Z,40.10
2023-02-06T00:05:07.691Z,46.80
2023-02-06T00:07:36.020Z,49.90
2023-02-06T00:10:04.623Z,44.80
2023-02-06T00:12:32.851Z,37.80
2023-02-06T00:15:06.267Z,38.00
2023-02-06T00:17:37.814Z,47.30
2023-02-06T00:20:07.407Z,43.00
2023-02-06T00:22:47.965Z,36.10
2023-02-06T00:25:16.028Z,44.20
2023-02-06T00:27:46.952Z,39.20
2023-02-06T00:32:43.330Z,43.80
2023-02-06T00:35:11.405Z,37.60
2023-02-06T00:37:45.424Z,36.00
2023-02-06T00:40:13.404Z,41.40
2023-02-06T00:42:44.023Z,39.40
2023-02-06T00:45:12.210Z,40.60
2023-02-06T00:47:42.316Z,47.40
2023-02-06T00:50:10.618Z,41.10
2023-02-06T00:52:38.656Z,42.60
2023-02-06T00:55:07.360Z,38.50
2023-02-06T00:57:55.728Z,34.30
2023-02-06T01:00:26.576Z,27.80
2023-02-06T01:02:56.976Z,41.00
2023-02-06T01:05:25.388Z,61.80
2023-02-06T01:07:53.692Z,74.90
2023-02-06T01:10:25.259Z,50.00
2023-02-06T01:13:01.376Z,74.60
2023-02-06T01:15:32.053Z,64.10
2023-02-06T01:18:03.537Z,66.00
2023-02-06T01:20:34.000Z,70.40
2023-02-06T01:23:02.591Z,80.00
2023-02-06T01:25:40.385Z,68.10
2023-02-06T01:28:12.275Z,71.10
2023-02-06T01:30:43.677Z,48.00
2023-02-06T01:36:02.274Z,58.10
2023-02-06T01:38:32.387Z,52.10
2023-02-06T01:41:03.096Z,53.10
2023-02-06T01:43:33.885Z,56.90
2023-02-06T01:46:05.408Z,50.90
2023-02-06T01:48:38.798Z,47.50
2023-02-06T01:51:17.536Z,40.90
2023-02-06T01:53:48.702Z,45.50
2023-02-06T01:56:19.575Z,54.60
2023-02-06T01:58:55.537Z,56.40
2023-02-06T02:01:23.809Z,54.20
2023-02-06T02:03:57.279Z,52.80
2023-02-06T02:06:28.916Z,59.80
2023-02-06T02:08:58.467Z,47.80
2023-02-06T02:11:29.571Z,71.30
2023-02-06T02:13:57.774Z,62.00
2023-02-06T02:16:33.355Z,63.30
2023-02-06T02:19:28.765Z,77.30
2023-02-06T02:22:21.099Z,87.60
2023-02-06T02:25:09.014Z,57.50
2023-02-06T02:28:06.028Z,65.10
2023-02-06T02:30:57.071Z,69.40
2023-02-06T02:33:27.797Z,71.90
2023-02-06T02:36:10.116Z,63.20
2023-02-06T02:38:45.300Z,76.60
2023-02-06T02:41:28.831Z,60.60
2023-02-06T02:44:08.805Z,62.20
2023-02-06T02:46:38.922Z,62.20
2023-02-06T02:49:10.792Z,97.40
2023-02-06T02:51:50.233Z,91.20
2023-02-06T02:54:19.013Z,79.90
2023-02-06T02:56:48.004Z,73.00
2023-02-06T02:59:23.959Z,68.80
2023-02-06T03:02:06.677Z,79.80
2023-02-06T03:04:41.775Z,61.40
2023-02-06T03:07:31.485Z,75.50
2023-02-06T03:09:59.970Z,59.30
2023-02-06T03:12:46.574Z,76.70
2023-02-06T03:15:20.784Z,72.80
2023-02-06T03:18:01.567Z,59.50
2023-02-06T03:20:31.351Z,54.20
2023-02-06T03:23:12.234Z,45.40
2023-02-06T03:25:46.471Z,41.90
2023-02-06T03:28:38.886Z,42.10
2023-02-06T03:31:24.626Z,42.20
2023-02-06T03:33:56.801Z,31.10
2023-02-06T03:36:27.315Z,28.10
2023-02-06T03:38:55.643Z,23.50
2023-02-06T03:41:27.909Z,30.40
2023-02-06T03:43:59.694Z,32.70
2023-02-06T03:46:28.609Z,31.20
2023-02-06T03:48:58.678Z,35.20
2023-02-06T03:51:31.177Z,25.40
2023-02-06T03:54:01.186Z,33.80
2023-02-06T03:56:44.839Z,29.10
2023-02-06T03:59:22.800Z,25.40
2023-02-06T04:01:55.304Z,28.40
2023-02-06T04:04:29.068Z,24.70
2023-02-06T04:07:07.540Z,25.40
2023-02-06T04:09:35.981Z,18.50
2023-02-06T04:12:06.504Z,30.60
2023-02-06T04:14:37.009Z,23.40
2023-02-06T04:17:05.714Z,20.60
2023-02-06T04:19:34.524Z,26.90
2023-02-06T04:22:03.125Z,30.50
2023-02-06T04:24:31.216Z,34.10
2023-02-06T04:27:14.724Z,32.30
2023-02-06T04:32:19.815Z,28.70
2023-02-06T04:34:48.064Z,30.90
2023-02-06T04:37:18.339Z,34.00
2023-02-06T04:39:49.918Z,38.60
2023-02-06T04:42:18.222Z,38.80
2023-02-06T04:44:46.386Z,32.80
2023-02-06T04:47:16.978Z,29.60
2023-02-06T04:49:45.140Z,28.00
2023-02-06T04:52:15.874Z,28.90
2023-02-06T04:54:44.006Z,26.00
2023-02-06T04:57:12.285Z,26.10
2023-02-06T04:59:40.631Z,24.80
2023-02-06T05:02:09.030Z,25.50
2023-02-06T05:04:57.448Z,23.30
2023-02-06T05:07:28.372Z,17.60
2023-02-06T05:10:04.307Z,26.40
2023-02-06T05:12:32.547Z,22.50
2023-02-06T05:15:00.546Z,19.70
2023-02-06T05:17:37.834Z,30.00
2023-02-06T05:20:06.367Z,29.40
2023-02-06T05:22:34.844Z,44.20
2023-02-06T05:25:03.010Z,62.70
2023-02-06T05:27:34.309Z,49.70
2023-02-06T05:30:04.871Z,64.20
2023-02-06T05:32:33.111Z,59.60
2023-02-06T05:35:04.183Z,54.40
2023-02-06T05:37:34.970Z,263.60
2023-02-06T05:40:08.262Z,128.20
2023-02-06T05:42:48.036Z,44.80
2023-02-06T05:45:16.289Z,42.90
2023-02-06T05:47:53.692Z,30.30
2023-02-06T05:50:21.619Z,38.70
2023-02-06T05:52:49.703Z,50.20
2023-02-06T05:55:18.504Z,43.70
2023-02-06T05:57:49.673Z,38.30
2023-02-06T06:00:18.121Z,35.60
2023-02-06T06:02:53.796Z,45.80
2023-02-06T06:05:29.550Z,37.70
2023-02-06T06:07:59.859Z,33.20
2023-02-06T06:10:28.225Z,35.40
2023-02-06T06:12:57.255Z,28.20
2023-02-06T06:15:25.400Z,31.90
2023-02-06T06:18:04.129Z,32.00
2023-02-06T06:20:32.407Z,28.40
2023-02-06T06:23:02.985Z,28.30
2023-02-06T06:25:35.667Z,21.70
2023-02-06T06:28:11.551Z,21.90
2023-02-06T06:30:39.816Z,24.20
2023-02-06T06:33:07.994Z,25.60
2023-02-06T06:35:38.677Z,22.90
2023-02-06T06:38:10.001Z,30.80
2023-02-06T06:40:39.921Z,31.90
2023-02-06T06:43:08.345Z,32.00
2023-02-06T06:45:39.931Z,32.20
2023-02-06T06:48:19.169Z,36.00
2023-02-06T06:50:50.635Z,27.40
2023-02-06T06:53:21.490Z,35.40
2023-02-06T06:55:49.586Z,46.40
2023-02-06T06:58:20.222Z,47.20
2023-02-06T07:00:59.998Z,40.40
2023-02-06T07:03:28.086Z,48.90
2023-02-06T07:05:56.255Z,37.90
2023-02-06T07:08:26.867Z,46.50
2023-02-06T07:10:58.465Z,45.20
2023-02-06T07:13:46.632Z,41.80
2023-02-06T07:16:17.794Z,35.30
2023-02-06T07:18:46.113Z,56.90
2023-02-06T07:21:20.019Z,58.80
2023-02-06T07:23:48.398Z,49.50
2023-02-06T07:26:18.809Z,50.20
2023-02-06T07:29:04.253Z,65.60
2023-02-06T07:31:32.273Z,52.10
2023-02-06T07:34:03.963Z,34.40
2023-02-06T07:36:32.325Z,33.00
2023-02-06T07:39:11.313Z,122.10
2023-02-06T07:41:50.984Z,41.60
2023-02-06T07:46:52.862Z,30.60
2023-02-06T07:49:23.976Z,85.30
2023-02-06T07:51:52.127Z,59.70
2023-02-06T07:54:29.144Z,33.20
2023-02-06T07:57:02.466Z,32.10
2023-02-06T07:59:33.291Z,30.40
2023-02-06T08:02:01.440Z,109.70
2023-02-06T08:04:35.230Z,92.70
2023-02-06T08:07:04.220Z,54.60
2023-02-06T08:10:22.936Z,30.90
2023-02-06T08:13:10.104Z,24.30
2023-02-06T08:15:38.536Z,119.00
2023-02-06T08:18:13.984Z,98.60
2023-02-06T08:20:44.403Z,59.70
2023-02-06T08:23:14.652Z,52.10
2023-02-06T08:25:42.861Z,26.00
2023-02-06T08:28:21.840Z,27.10
2023-02-06T08:30:50.486Z,26.10
2023-02-06T08:33:30.043Z,28.90
2023-02-06T08:36:01.571Z,29.40
2023-02-06T08:38:32.784Z,25.00
2023-02-06T08:41:03.978Z,29.40
2023-02-06T08:43:34.930Z,37.80
2023-02-06T08:46:27.060Z,35.60
2023-02-06T08:49:00.126Z,33.30
2023-02-06T08:51:28.478Z,30.30
2023-02-06T08:53:59.707Z,30.60
2023-02-06T08:58:59.509Z,36.60
2023-02-06T09:01:29.564Z,41.50
2023-02-06T09:04:14.111Z,35.70
2023-02-06T09:06:45.011Z,32.40
2023-02-06T09:09:13.487Z,39.60
2023-02-06T09:11:44.069Z,73.20
2023-02-06T09:14:17.240Z,34.20
2023-02-06T09:16:48.759Z,37.20
2023-02-06T09:19:26.101Z,40.10
2023-02-06T09:22:14.906Z,27.20
2023-02-06T09:24:45.944Z,29.70
2023-02-06T09:27:15.614Z,32.60
2023-02-06T09:30:11.387Z,28.20
2023-02-06T09:32:39.660Z,25.90
2023-02-06T09:35:10.907Z,21.70
2023-02-06T09:38:06.616Z,23.40
2023-02-06T09:40:35.504Z,22.20
2023-02-06T09:43:06.087Z,30.50
2023-02-06T09:45:44.649Z,46.20
2023-02-06T09:48:20.645Z,57.20
2023-02-06T09:50:55.780Z,28.20
2023-02-06T09:53:36.851Z,28.70
2023-02-06T09:56:22.438Z,24.90
2023-02-06T09:59:09.050Z,19.00
2023-02-06T10:01:43.430Z,20.50
2023-02-06T10:04:23.968Z,23.70
2023-02-06T10:07:30.896Z,28.80
2023-02-06T10:10:07.403Z,25.10
2023-02-06T10:12:39.092Z,20.30
2023-02-06T10:15:11.318Z,19.30
2023-02-06T10:17:58.057Z,17.10
2023-02-06T10:20:30.964Z,18.40
2023-02-06T10:23:02.351Z,19.00
2023-02-06T10:25:35.226Z,17.80
2023-02-06T10:28:17.386Z,18.30
2023-02-06T10:30:58.713Z,14.90
2023-02-06T10:33:46.107Z,16.00
2023-02-06T10:36:14.082Z,15.90
2023-02-06T10:38:51.735Z,14.60
2023-02-06T10:41:28.314Z,17.20
2023-02-06T10:44:00.213Z,18.20
2023-02-06T10:46:43.837Z,23.30
2023-02-06T10:49:16.017Z,18.60
2023-02-06T10:51:48.493Z,17.40
2023-02-06T10:54:23.111Z,19.50
2023-02-06T10:56:55.397Z,17.80
2023-02-06T10:59:29.290Z,19.50
2023-02-06T11:02:10.180Z,34.50
2023-02-06T11:04:56.031Z,21.50
2023-02-06T11:07:29.870Z,16.30
2023-02-06T11:09:58.851Z,20.10
2023-02-06T11:12:26.728Z,21.10
2023-02-06T11:14:55.403Z,12.80
2023-02-06T11:17:28.402Z,12.30
2023-02-06T11:20:01.791Z,13.70
2023-02-06T11:22:34.753Z,42.40
2023-02-06T11:25:07.889Z,12.90
2023-02-06T11:27:39.208Z,21.20
2023-02-06T11:30:22.239Z,11.90
2023-02-06T11:33:07.922Z,11.10
2023-02-06T11:35:41.318Z,11.30
2023-02-06T11:38:21.699Z,13.30
2023-02-06T11:41:02.034Z,17.30
2023-02-06T11:43:46.338Z,11.70
2023-02-06T11:46:18.934Z,12.90
2023-02-06T11:49:01.663Z,11.50
2023-02-06T11:51:48.534Z,18.70
2023-02-06T11:54:20.969Z,13.70
2023-02-06T11:57:12.052Z,17.70
2023-02-06T11:59:50.260Z,18.70
2023-02-06T12:02:31.055Z,14.40
2023-02-06T12:05:17.657Z,16.00
2023-02-06T12:07:52.067Z,10.80
2023-02-06T12:10:21.901Z,14.40
2023-02-06T12:12:53.380Z,12.60
2023-02-06T12:15:48.279Z,14.10
2023-02-06T12:18:57.296Z,19.10
2023-02-06T12:21:27.109Z,15.50
2023-02-06T12:24:02.200Z,16.50
2023-02-06T12:26:31.988Z,33.70
2023-02-06T12:29:07.179Z,14.20
2023-02-06T12:31:41.243Z,18.30
2023-02-06T12:34:15.640Z,45.90
2023-02-06T12:36:58.931Z,20.80
2023-02-06T12:39:31.492Z,19.10
2023-02-06T12:42:17.979Z,21.20
2023-02-06T12:44:52.838Z,14.00
2023-02-06T12:47:32.659Z,14.70
2023-02-06T12:50:07.208Z,12.30
2023-02-06T12:52:46.836Z,18.30
2023-02-06T12:55:48.563Z,15.10
2023-02-06T12:58:32.655Z,16.30
2023-02-06T13:01:27.963Z,13.30
2023-02-06T13:04:00.043Z,18.30
2023-02-06T13:06:42.497Z,12.80
2023-02-06T13:09:24.390Z,16.00
2023-02-06T13:11:59.134Z,17.00
2023-02-06T13:14:29.500Z,14.70
2023-02-06T13:17:12.134Z,12.60
2023-02-06T13:20:03.424Z,19.40
2023-02-06T13:22:34.693Z,21.60
2023-02-06T13:25:25.656Z,24.70
2023-02-06T13:28:10.631Z,16.20
2023-02-06T13:30:42.177Z,20.00
2023-02-06T13:33:44.424Z,32.10
2023-02-06T13:36:25.037Z,14.40
2023-02-06T13:38:57.272Z,26.10
2023-02-06T13:41:28.198Z,24.50
2023-02-06T13:44:06.665Z,14.50
2023-02-06T13:46:58.593Z,31.00
2023-02-06T13:49:50.325Z,25.40
2023-02-06T13:52:59.344Z,36.80
2023-02-06T13:56:03.900Z,20.20
2023-02-06T13:58:44.296Z,39.10
2023-02-06T14:01:24.811Z,42.60
2023-02-06T14:03:58.424Z,42.80
2023-02-06T14:06:40.431Z,42.00
2023-02-06T14:09:14.633Z,34.40
2023-02-06T14:12:15.556Z,34.30
2023-02-06T14:15:07.388Z,31.30
2023-02-06T14:17:56.165Z,28.20
2023-02-06T14:20:43.823Z,32.70
2023-02-06T14:23:20.949Z,25.00
2023-02-06T14:25:52.813Z,15.40
2023-02-06T14:28:33.487Z,15.90
2023-02-06T14:31:19.960Z,15.40
2023-02-06T14:33:57.449Z,15.40
2023-02-06T14:36:25.390Z,23.00
2023-02-06T14:39:04.766Z,21.60
2023-02-06T14:41:36.329Z,21.00
2023-02-06T14:44:08.372Z,12.00
2023-02-06T14:46:39.910Z,14.70
2023-02-06T14:49:13.764Z,14.70
2023-02-06T14:51:42.000Z,13.70
2023-02-06T14:54:45.832Z,18.80
2023-02-06T14:57:20.072Z,20.40
2023-02-06T15:00:14.371Z,25.30
2023-02-06T15:02:42.733Z,19.80
2023-02-06T15:05:33.866Z,19.70
2023-02-06T15:08:12.396Z,19.70
2023-02-06T15:10:56.612Z,23.90
2023-02-06T15:13:29.212Z,27.30
2023-02-06T15:16:01.963Z,26.90
2023-02-06T15:18:34.623Z,22.10
2023-02-06T15:21:25.753Z,16.90
2023-02-06T15:24:20.208Z,15.90
2023-02-06T15:27:00.774Z,32.70
2023-02-06T15:29:29.499Z,26.50
2023-02-06T15:32:03.882Z,25.60
2023-02-06T15:34:35.235Z,28.70
2023-02-06T15:38:03.456Z,27.00
2023-02-06T15:41:00.704Z,38.60
2023-02-06T15:43:48.245Z,25.30
2023-02-06T15:46:19.166Z,17.80
2023-02-06T15:48:48.917Z,32.90
2023-02-06T15:51:22.992Z,26.10
2023-02-06T15:54:04.741Z,16.00
2023-02-06T15:56:37.423Z,28.20
2023-02-06T15:59:07.324Z,23.00
2023-02-06T16:01:38.881Z,34.00
2023-02-06T16:04:18.676Z,45.00
2023-02-06T16:06:47.060Z,36.40
2023-02-06T16:09:21.797Z,30.10
2023-02-06T16:11:51.487Z,29.90
2023-02-06T16:14:31.566Z,40.90
2023-02-06T16:17:02.377Z,49.00
2023-02-06T16:19:40.991Z,39.50
2023-02-06T16:22:22.555Z,37.30
2023-02-06T16:24:52.230Z,48.10
2023-02-06T16:27:23.373Z,49.00
2023-02-06T16:29:55.631Z,41.40
2023-02-06T16:32:31.382Z,53.10
2023-02-06T16:35:01.375Z,66.90
2023-02-06T16:37:42.801Z,84.10
2023-02-06T16:40:11.548Z,80.50
2023-02-06T16:42:50.760Z,89.00
2023-02-06T16:45:23.265Z,72.40
2023-02-06T16:47:51.499Z,83.30
2023-02-06T16:50:21.490Z,61.00
2023-02-06T16:52:51.764Z,51.30
2023-02-06T16:55:23.274Z,57.90
2023-02-06T16:57:56.427Z,49.60
2023-02-06T17:00:26.298Z,32.90
2023-02-06T17:02:54.505Z,35.10
2023-02-06T17:05:24.004Z,50.20
2023-02-06T17:08:12.334Z,39.80
2023-02-06T17:10:49.826Z,40.30
2023-02-06T17:13:25.767Z,44.40
2023-02-06T17:15:54.459Z,52.00
2023-02-06T17:18:23.213Z,42.90
2023-02-06T17:20:52.911Z,62.20
2023-02-06T17:23:21.158Z,72.20
2023-02-06T17:25:54.247Z,61.10
2023-02-06T17:28:25.023Z,74.10
2023-02-06T17:30:53.656Z,58.40
2023-02-06T17:33:21.976Z,52.90
2023-02-06T17:35:57.741Z,62.10
2023-02-06T17:38:33.031Z,67.80
2023-02-06T17:41:01.000Z,76.90
2023-02-06T17:43:29.791Z,69.60
2023-02-06T17:46:01.018Z,83.30
2023-02-06T17:48:36.621Z,83.70
2023-02-06T17:51:28.059Z,73.90
2023-02-06T17:53:57.095Z,68.70
2023-02-06T17:56:25.403Z,69.20
2023-02-06T17:59:04.846Z,59.10
2023-02-06T18:01:42.864Z,63.20
2023-02-06T18:04:14.181Z,129.90
2023-02-06T18:09:18.189Z,75.10
2023-02-06T18:11:49.036Z,74.60
2023-02-06T18:14:17.306Z,80.20
2023-02-06T18:17:09.143Z,69.80
2023-02-06T18:19:48.235Z,87.70
2023-02-06T18:22:29.858Z,98.90
2023-02-06T18:25:03.143Z,367.70
2023-02-06T18:27:45.670Z,146.90
2023-02-06T18:30:32.307Z,312.30
2023-02-06T18:33:20.811Z,256.90
2023-02-06T18:36:11.984Z,129.40
2023-02-06T18:38:46.832Z,111.40
2023-02-06T18:41:33.563Z,93.60
2023-02-06T18:44:22.118Z,117.90
2023-02-06T18:46:52.914Z,134.10
2023-02-06T18:49:33.496Z,129.10
2023-02-06T18:52:10.865Z,133.90
2023-02-06T18:54:59.357Z,123.10
2023-02-06T18:57:39.251Z,119.80
2023-02-06T19:00:08.633Z,131.30
2023-02-06T19:02:48.930Z,129.80
2023-02-06T19:05:20.170Z,114.90
2023-02-06T19:07:49.684Z,191.00
2023-02-06T19:10:20.866Z,116.80
2023-02-06T19:12:58.835Z,81.90
2023-02-06T19:15:26.959Z,115.40
2023-02-06T19:18:06.485Z,107.50
2023-02-06T19:20:35.063Z,146.80
2023-02-06T19:23:05.877Z,276.70
2023-02-06T19:25:34.077Z,130.90
2023-02-06T19:28:04.814Z,142.80
2023-02-06T19:30:33.223Z,111.20
2023-02-06T19:33:01.412Z,102.50
2023-02-06T19:35:32.811Z,98.40
2023-02-06T19:38:08.122Z,74.40
2023-02-06T19:40:39.802Z,98.80
2023-02-06T19:43:07.998Z,118.60
2023-02-06T19:45:36.771Z,72.50
2023-02-06T19:48:11.857Z,74.40
2023-02-06T19:50:42.942Z,63.50
2023-02-06T19:53:13.863Z,71.20
2023-02-06T19:55:47.098Z,72.30
2023-02-06T19:58:15.105Z,64.30
2023-02-06T20:00:43.238Z,65.90
2023-02-06T20:03:11.492Z,69.90
2023-02-06T20:05:39.667Z,78.50
2023-02-06T20:08:07.696Z,85.00
2023-02-06T20:10:37.298Z,63.50
2023-02-06T20:13:05.827Z,67.20
2023-02-06T20:15:38.131Z,84.70
2023-02-06T20:18:06.171Z,87.80
2023-02-06T20:20:34.889Z,70.10
2023-02-06T20:23:03.122Z,66.90
2023-02-06T20:25:31.251Z,75.30
2023-02-06T20:28:00.154Z,50.80
2023-02-06T20:30:33.507Z,65.10
2023-02-06T20:33:01.668Z,80.10
2023-02-06T20:35:29.944Z,50.60
2023-02-06T20:37:58.323Z,67.50
2023-02-06T20:40:29.711Z,81.30
2023-02-06T20:42:57.880Z,76.00
2023-02-06T20:45:26.197Z,65.30
2023-02-06T20:48:00.575Z,63.40
2023-02-06T20:50:31.481Z,85.30
2023-02-06T20:52:59.732Z,159.40
2023-02-06T20:55:28.761Z,177.10
2023-02-06T20:57:56.811Z,201.70
2023-02-06T21:00:30.562Z,135.70
2023-02-06T21:02:58.824Z,116.90
2023-02-06T21:05:27.140Z,121.50
2023-02-06T21:07:58.168Z,97.00
2023-02-06T21:10:27.989Z,102.40
2023-02-06T21:12:56.121Z,81.10
2023-02-06T21:15:24.372Z,86.30
2023-02-06T21:17:55.607Z,86.50
2023-02-06T21:20:23.819Z,93.90
2023-02-06T21:22:53.022Z,107.40
2023-02-06T21:25:21.596Z,97.20
2023-02-06T21:27:49.746Z,102.40
2023-02-06T21:30:17.934Z,120.10
2023-02-06T21:32:46.057Z,104.70
2023-02-06T21:35:16.342Z,88.60
2023-02-06T21:37:44.557Z,82.20
2023-02-06T21:40:12.641Z,81.00
2023-02-06T21:42:40.733Z,98.30
2023-02-06T21:45:09.282Z,54.70
2023-02-06T21:47:37.658Z,80.40
2023-02-06T21:50:06.323Z,70.90
2023-02-06T21:52:37.739Z,76.00
2023-02-06T21:55:07.628Z,84.70
2023-02-06T21:57:38.838Z,68.50
2023-02-06T22:00:07.037Z,80.40
2023-02-06T22:02:40.469Z,72.80
2023-02-06T22:05:08.752Z,80.00
2023-02-06T22:07:39.422Z,63.30
2023-02-06T22:10:10.942Z,85.80
2023-02-06T22:12:39.170Z,117.00
2023-02-06T22:15:07.815Z,82.00
2023-02-06T22:17:38.072Z,83.90
2023-02-06T22:20:08.955Z,71.20
2023-02-06T22:22:41.163Z,63.30
2023-02-06T22:25:11.693Z,74.50
2023-02-06T22:27:43.510Z,60.80
2023-02-06T22:30:14.480Z,66.20
2023-02-06T22:32:51.486Z,50.70
2023-02-06T22:35:39.969Z,94.00
2023-02-06T22:38:08.394Z,101.70
2023-02-06T22:40:36.448Z,103.30
2023-02-06T22:43:04.925Z,117.50
2023-02-06T22:45:35.724Z,99.60
2023-02-06T22:48:06.491Z,84.30
2023-02-06T22:50:35.415Z,68.00
2023-02-06T22:53:21.983Z,70.70
2023-02-06T22:56:11.817Z,64.50
2023-02-06T22:58:42.693Z,86.70
2023-02-06T23:01:14.641Z,111.70
2023-02-06T23:03:45.903Z,71.30
2023-02-06T23:06:19.563Z,64.10
2023-02-06T23:08:53.646Z,62.00
2023-02-06T23:11:21.696Z,75.00
2023-02-06T23:13:58.675Z,81.00
2023-02-06T23:16:27.854Z,70.60
2023-02-06T23:18:56.456Z,66.00
2023-02-06T23:21:30.625Z,59.90
2023-02-06T23:24:00.849Z,61.30
2023-02-06T23:26:29.488Z,65.90
2023-02-06T23:28:58.450Z,75.30
2023-02-06T23:31:30.238Z,70.30
2023-02-06T23:33:58.604Z,66.80
2023-02-06T23:36:32.285Z,57.30
2023-02-06T23:39:04.385Z,70.10
2023-02-06T23:41:33.184Z,46.80
2023-02-06T23:44:03.186Z,61.00
2023-02-06T23:46:34.852Z,50.40
2023-02-06T23:49:11.906Z,65.20
2023-02-06T23:52:03.247Z,54.80
2023-02-06T23:54:36.181Z,61.70
2023-02-06T23:57:07.459Z,67.00
2023-02-06T23:59:35.536Z,65.70
